Time;durP1;ratioP1;P1;durP2;ratioP2;P2;SDS_P1;SDS_P2;PMS_P1;PMS_P2;Temp;Humidity;BMP_temperature;BMP_pressure;BME280_temperature;BME280_humidity;BME280_pressure;Samples;Min_cycle;Max_cycle;Signal;HPM_P1;HPM_P2
2023/01/24 00:01:16;;;;;;;41.22;15.35;;;1.50;99.90;;;;;;5034521;28;20099;-64
2023/01/24 00:03:42;;;;;;;43.90;16.52;;;1.50;99.90;;;;;;5028861;28;20595;-62
2023/01/24 00:06:07;;;;;;;40.95;15.68;;;1.50;99.90;;;;;;5032439;28;20096;-63
2023/01/24 00:08:33;;;;;;;41.00;15.48;;;1.50;99.90;;;;;;5036015;28;20025;-63
2023/01/24 00:11:04;;;;;;;40.22;14.65;;;1.50;99.90;;;;;;5033169;28;20420;-64
2023/01/24 00:13:30;;;;;;;40.47;14.60;;;1.50;99.90;;;;;;5035087;28;20417;-64
2023/01/24 00:16:18;;;;;;;39.83;15.15;;;1.50;99.90;;;;;;5035686;28;20478;-64
2023/01/24 00:18:44;;;;;;;38.75;14.55;;;1.50;99.90;;;;;;5031516;28;20474;-63
2023/01/24 00:21:19;;;;;;;41.17;15.15;;;1.50;99.90;;;;;;5031575;28;20604;-63
2023/01/24 00:23:48;;;;;;;40.38;15.32;;;1.50;99.90;;;;;;5029960;28;20474;-63
2023/01/24 00:26:15;;;;;;;42.33;15.52;;;1.50;99.90;;;;;;5034500;28;20548;-64
2023/01/24 00:28:40;;;;;;;40.38;14.45;;;1.50;99.90;;;;;;5033384;28;20107;-63
2023/01/24 00:31:06;;;;;;;39.97;14.15;;;1.50;99.90;;;;;;5028057;28;20033;-65
2023/01/24 00:33:33;;;;;;;41.72;13.85;;;1.50;99.90;;;;;;5032549;28;20083;-64
2023/01/24 00:35:59;;;;;;;39.85;14.63;;;1.50;99.90;;;;;;5028725;28;20037;-64
2023/01/24 00:38:25;;;;;;;41.20;15.20;;;1.50;99.90;;;;;;5035641;28;20061;-64
2023/01/24 00:40:50;;;;;;;42.78;15.35;;;1.50;99.90;;;;;;5027255;28;20462;-62
2023/01/24 00:43:16;;;;;;;41.50;15.02;;;1.50;99.90;;;;;;5034593;28;20072;-64
2023/01/24 00:45:44;;;;;;;41.88;14.73;;;1.50;99.90;;;;;;5028308;28;20034;-63
2023/01/24 00:48:10;;;;;;;37.33;14.48;;;1.50;99.90;;;;;;5030512;28;20042;-63
2023/01/24 00:50:36;;;;;;;41.72;14.65;;;1.50;99.90;;;;;;5033304;28;20595;-62
2023/01/24 00:53:03;;;;;;;37.10;14.43;;;1.50;99.90;;;;;;5032908;28;20138;-63
2023/01/24 00:55:29;;;;;;;39.50;14.45;;;1.40;99.90;;;;;;5033883;28;20037;-63
2023/01/24 00:57:55;;;;;;;37.90;14.68;;;1.50;99.90;;;;;;5033578;28;20047;-64
2023/01/24 01:00:21;;;;;;;37.58;14.02;;;1.40;99.90;;;;;;5029154;28;20056;-63
2023/01/24 01:02:48;;;;;;;40.25;14.60;;;1.40;99.90;;;;;;5030859;28;20148;-63
2023/01/24 01:05:15;;;;;;;42.13;15.10;;;1.50;99.90;;;;;;5034325;28;20123;-62
2023/01/24 01:07:40;;;;;;;42.78;14.57;;;1.40;99.90;;;;;;5027214;28;20061;-64
2023/01/24 01:10:06;;;;;;;38.30;14.60;;;1.40;99.90;;;;;;5035935;28;20104;-63
2023/01/24 01:12:32;;;;;;;39.10;14.45;;;1.40;99.90;;;;;;5050980;28;20056;-63
2023/01/24 01:14:57;;;;;;;39.85;14.75;;;1.40;99.90;;;;;;5048206;28;20033;-63
2023/01/24 01:17:23;;;;;;;37.75;13.68;;;1.40;99.90;;;;;;5047636;28;20040;-63
2023/01/24 01:19:52;;;;;;;43.15;14.73;;;1.40;99.90;;;;;;5049613;28;20044;-63
2023/01/24 01:22:18;;;;;;;41.28;14.57;;;1.40;99.90;;;;;;5045477;28;20044;-63
2023/01/24 01:24:44;;;;;;;42.45;15.20;;;1.40;99.90;;;;;;5049319;28;20037;-63
2023/01/24 01:27:09;;;;;;;48.83;15.95;;;1.40;99.90;;;;;;5046840;28;20040;-63
2023/01/24 01:29:35;;;;;;;56.22;17.52;;;1.40;99.90;;;;;;5033039;28;20867;-61
2023/01/24 01:32:01;;;;;;;51.00;17.15;;;1.40;99.90;;;;;;5038299;28;20039;-63
2023/01/24 01:34:26;;;;;;;47.88;16.13;;;1.40;99.90;;;;;;5047917;28;20504;-64
2023/01/24 01:36:52;;;;;;;43.60;15.65;;;1.40;99.90;;;;;;5041937;28;20029;-63
2023/01/24 01:39:18;;;;;;;46.00;16.00;;;1.40;99.90;;;;;;5034521;28;20029;-64
2023/01/24 01:41:43;;;;;;;46.20;16.17;;;1.40;99.90;;;;;;5045182;28;20045;-63
2023/01/24 01:44:38;;;;;;;42.55;15.38;;;1.40;99.90;;;;;;5049090;28;20043;-64
2023/01/24 01:47:25;;;;;;;42.78;15.27;;;1.40;99.90;;;;;;5040168;28;20045;-62
2023/01/24 01:50:05;;;;;;;41.35;14.73;;;1.40;99.90;;;;;;5047958;28;20029;-63
2023/01/24 01:52:37;;;;;;;38.03;14.95;;;1.40;99.90;;;;;;5046672;28;20029;-64
2023/01/24 01:55:10;;;;;;;42.72;15.52;;;1.40;99.90;;;;;;5037391;28;20040;-63
2023/01/24 01:57:36;;;;;;;42.00;14.82;;;1.40;99.90;;;;;;5028125;28;20076;-63
2023/01/24 02:00:19;;;;;;;44.75;16.17;;;1.40;99.90;;;;;;5034008;28;20069;-63
2023/01/24 02:02:53;;;;;;;44.08;15.40;;;1.40;99.90;;;;;;5031478;28;20123;-65
2023/01/24 02:05:24;;;;;;;41.05;15.10;;;1.40;99.90;;;;;;5029698;28;20144;-61
2023/01/24 02:08:01;;;;;;;43.25;15.43;;;1.40;99.90;;;;;;5040193;28;20045;-63
2023/01/24 02:13:12;;;;;;;44.13;15.68;;;1.40;99.90;;;;;;5045215;28;20070;-63
2023/01/24 02:18:23;;;;;;;43.33;15.80;;;1.40;99.90;;;;;;5050900;28;20044;-64
2023/01/24 02:20:49;;;;;;;40.70;15.25;;;1.40;99.90;;;;;;5052899;28;20590;-62
2023/01/24 02:23:28;;;;;;;44.03;15.60;;;1.40;99.90;;;;;;5050478;28;20071;-61
2023/01/24 02:26:11;;;;;;;44.45;15.63;;;1.40;99.90;;;;;;5034711;28;20026;-63
2023/01/24 02:28:42;;;;;;;43.40;15.45;;;1.40;99.90;;;;;;5050491;28;20375;-63
2023/01/24 02:31:08;;;;;;;42.95;15.77;;;1.40;99.90;;;;;;5052941;28;20098;-63
2023/01/24 02:33:33;;;;;;;42.38;15.90;;;1.40;99.90;;;;;;5049626;28;20498;-63
2023/01/24 02:36:31;;;;;;;39.30;14.25;;;1.50;99.90;;;;;;5050760;28;20033;-64
2023/01/24 02:39:15;;;;;;;48.50;15.93;;;1.40;99.90;;;;;;5033551;28;20088;-62
2023/01/24 02:41:41;;;;;;;44.50;14.60;;;1.40;99.90;;;;;;5036295;28;20029;-63
2023/01/24 02:44:12;;;;;;;40.72;15.75;;;1.40;99.90;;;;;;5037211;28;20100;-63
2023/01/24 02:46:38;;;;;;;43.60;15.02;;;1.40;99.90;;;;;;5050080;28;20028;-63
2023/01/24 02:49:08;;;;;;;49.22;15.70;;;1.40;99.90;;;;;;5051521;28;20533;-62
2023/01/24 02:54:18;;;;;;;42.83;15.48;;;1.40;99.90;;;;;;5049555;28;20044;-62
2023/01/24 02:59:27;;;;;;;46.63;15.20;;;1.40;99.90;;;;;;5050132;28;20095;-63
2023/01/24 03:01:53;;;;;;;44.70;15.40;;;1.40;99.90;;;;;;5051568;28;20469;-63
2023/01/24 03:04:19;;;;;;;44.50;14.85;;;1.40;99.90;;;;;;5049083;28;20028;-63
2023/01/24 03:06:44;;;;;;;45.35;15.07;;;1.40;99.90;;;;;;5064445;28;20055;-63
2023/01/24 03:09:19;;;;;;;50.08;16.52;;;1.40;99.90;;;;;;5071552;28;20037;-63
2023/01/24 03:11:49;;;;;;;47.28;17.13;;;1.40;99.90;;;;;;5048353;28;20044;-62
2023/01/24 03:36:19;;;;;;;47.67;16.40;;;1.40;99.90;;;;;;5050768;28;20514;-63
2023/01/24 03:41:32;;;;;;;45.28;15.38;;;1.40;99.90;;;;;;5028450;28;20052;-64
2023/01/24 03:43:58;;;;;;;42.92;14.63;;;1.40;99.90;;;;;;5033048;28;20045;-63
2023/01/24 03:46:24;;;;;;;45.88;16.20;;;1.40;99.90;;;;;;5033169;28;20047;-63
2023/01/24 03:48:49;;;;;;;51.33;17.23;;;1.40;99.90;;;;;;5032251;28;20499;-63
2023/01/24 03:53:59;;;;;;;49.28;16.10;;;1.30;99.90;;;;;;5032416;28;20172;-64
2023/01/24 03:56:25;;;;;;;51.40;17.25;;;1.40;99.90;;;;;;5032983;28;20706;-63
2023/01/24 03:58:53;;;;;;;44.67;15.90;;;1.40;99.90;;;;;;5032268;28;20037;-63
2023/01/24 04:01:19;;;;;;;42.78;15.52;;;1.40;99.90;;;;;;5032274;28;20041;-63
2023/01/24 04:03:45;;;;;;;42.47;15.02;;;1.40;99.90;;;;;;5031665;28;20082;-63
2023/01/24 04:06:10;;;;;;;49.92;16.40;;;1.40;99.90;;;;;;5033661;28;20037;-63
2023/01/24 04:08:36;;;;;;;43.58;15.52;;;1.40;99.90;;;;;;5028581;28;20112;-62
2023/01/24 04:11:02;;;;;;;53.78;17.67;;;1.40;99.90;;;;;;5033175;28;20040;-64
2023/01/24 04:13:27;;;;;;;44.70;16.63;;;1.40;99.90;;;;;;5035336;28;20045;-64
2023/01/24 04:15:53;;;;;;;48.13;16.58;;;1.40;99.90;;;;;;5030298;28;20132;-63
2023/01/24 04:18:19;;;;;;;49.88;16.73;;;1.30;99.90;;;;;;5036472;28;20450;-63
2023/01/24 04:20:44;;;;;;;51.28;16.80;;;1.40;99.90;;;;;;5043583;28;20091;-63
2023/01/24 04:23:11;;;;;;;43.47;15.95;;;1.40;99.90;;;;;;5033142;28;20096;-63
2023/01/24 04:25:37;;;;;;;44.35;17.02;;;1.30;99.90;;;;;;5037004;28;20470;-63
2023/01/24 04:28:03;;;;;;;45.28;16.45;;;1.40;99.90;;;;;;5034853;28;20068;-63
2023/01/24 04:30:28;;;;;;;44.67;16.15;;;1.40;99.90;;;;;;5029376;28;20025;-64
2023/01/24 04:32:54;;;;;;;48.20;17.02;;;1.40;99.90;;;;;;5041883;28;20056;-64
2023/01/24 04:35:22;;;;;;;40.83;15.65;;;1.30;99.90;;;;;;5036624;28;20092;-62
2023/01/24 04:37:48;;;;;;;45.22;17.27;;;1.40;99.90;;;;;;5046776;28;20049;-63
2023/01/24 04:40:14;;;;;;;49.17;16.35;;;1.40;99.90;;;;;;5047260;28;20040;-63
2023/01/24 04:42:43;;;;;;;50.50;16.55;;;1.30;99.90;;;;;;5045013;28;20064;-63
2023/01/24 04:45:10;;;;;;;44.40;16.30;;;1.30;99.90;;;;;;5047568;28;20114;-63
2023/01/24 04:47:36;;;;;;;45.63;16.20;;;1.30;99.90;;;;;;5044632;28;20112;-62
2023/01/24 04:50:02;;;;;;;44.75;16.35;;;1.40;99.90;;;;;;5048703;28;20172;-63
2023/01/24 04:52:28;;;;;;;45.97;16.60;;;1.30;99.90;;;;;;5048034;28;20021;-64
2023/01/24 04:54:53;;;;;;;42.10;15.43;;;1.40;99.90;;;;;;5043230;28;20036;-64
2023/01/24 04:57:19;;;;;;;43.95;16.90;;;1.30;99.90;;;;;;5040234;28;20040;-63
2023/01/24 04:59:44;;;;;;;41.53;14.65;;;1.30;99.90;;;;;;5022319;28;20057;-65
2023/01/24 05:02:10;;;;;;;41.65;15.02;;;1.30;99.90;;;;;;5031669;28;20034;-63
2023/01/24 05:04:36;;;;;;;42.22;15.63;;;1.30;99.90;;;;;;5042148;28;20017;-63
2023/01/24 05:07:02;;;;;;;43.10;15.90;;;1.30;99.90;;;;;;5045052;28;20116;-63
2023/01/24 05:09:27;;;;;;;44.85;15.25;;;1.30;99.90;;;;;;5047359;28;20032;-64
2023/01/24 05:11:53;;;;;;;41.30;14.32;;;1.30;99.90;;;;;;5033948;28;20037;-64
2023/01/24 05:14:19;;;;;;;39.80;14.75;;;1.30;99.90;;;;;;5046750;28;20036;-63
2023/01/24 05:16:44;;;;;;;40.10;14.95;;;1.30;99.90;;;;;;5043157;28;20029;-63
2023/01/24 05:19:10;;;;;;;41.00;15.95;;;1.30;99.90;;;;;;5047628;28;20393;-63
2023/01/24 05:21:36;;;;;;;45.95;15.63;;;1.30;99.90;;;;;;5046167;28;20040;-62
2023/01/24 05:24:02;;;;;;;39.78;15.77;;;1.30;99.90;;;;;;5060486;28;20461;-64
2023/01/24 05:26:27;;;;;;;40.65;14.20;;;1.30;99.90;;;;;;5054263;28;20045;-62
2023/01/24 05:28:53;;;;;;;42.58;15.38;;;1.30;99.90;;;;;;5047224;28;20100;-63
2023/01/24 05:31:19;;;;;;;44.47;15.05;;;1.30;99.90;;;;;;5046338;28;20412;-62
2023/01/24 05:33:45;;;;;;;42.58;15.45;;;1.30;99.90;;;;;;5043873;28;20041;-64
2023/01/24 05:36:16;;;;;;;45.67;15.68;;;1.30;99.90;;;;;;5046515;28;20029;-63
2023/01/24 05:38:42;;;;;;;;;;;1.30;99.90;;;;;;5047268;28;20103;-62
2023/01/24 05:41:10;;;;;;;41.38;14.15;;;1.30;99.90;;;;;;5047997;28;20008;-63
2023/01/24 05:43:36;;;;;;;45.35;13.48;;;1.30;99.90;;;;;;5045522;28;20056;-63
2023/01/24 05:46:05;;;;;;;44.80;15.25;;;1.30;99.90;;;;;;5038888;28;20079;-63
2023/01/24 05:48:31;;;;;;;36.17;14.02;;;1.30;99.90;;;;;;5046220;28;20025;-62
2023/01/24 05:51:11;;;;;;;47.95;16.25;;;1.30;99.90;;;;;;5029226;28;20055;-63
2023/01/24 05:53:38;;;;;;;33.72;11.15;;;1.30;99.90;;;;;;5048045;28;20538;-62
2023/01/24 05:56:07;;;;;;;40.20;14.82;;;1.30;99.90;;;;;;5044084;28;20082;-62
2023/01/24 05:58:36;;;;;;;41.47;14.98;;;1.30;99.90;;;;;;5044960;28;20417;-64
2023/01/24 06:01:10;;;;;;;46.65;15.60;;;1.30;99.90;;;;;;5045017;28;20078;-64
2023/01/24 06:03:40;;;;;;;38.95;15.23;;;1.30;99.90;;;;;;5044545;28;20123;-62
2023/01/24 06:06:07;;;;;;;;;;;1.30;99.90;;;;;;5045413;28;20029;-63
2023/01/24 06:08:32;;;;;;;41.75;15.18;;;1.30;99.90;;;;;;5046700;28;19919;-61
2023/01/24 06:11:06;;;;;;;46.33;15.23;;;1.30;99.90;;;;;;5048038;28;20037;-63
2023/01/24 06:13:32;;;;;;;42.17;14.20;;;1.30;99.90;;;;;;5025103;28;20077;-64
2023/01/24 06:16:06;;;;;;;45.33;14.57;;;1.30;99.90;;;;;;5036967;28;20481;-62
2023/01/24 06:18:32;;;;;;;42.22;14.65;;;1.30;99.90;;;;;;5047116;28;20052;-63
2023/01/24 06:21:03;;;;;;;39.05;15.00;;;1.20;99.90;;;;;;5046813;28;20055;-63
2023/01/24 06:23:29;;;;;;;38.20;13.85;;;1.30;99.90;;;;;;5043777;28;20591;-63
2023/01/24 06:25:55;;;;;;;39.25;14.48;;;1.30;99.90;;;;;;5043416;28;20143;-62
2023/01/24 06:28:21;;;;;;;43.97;14.77;;;1.30;99.90;;;;;;5046366;28;20021;-63
2023/01/24 06:31:12;;;;;;;36.80;13.88;;;1.30;99.90;;;;;;5036371;28;20025;-63
2023/01/24 06:34:02;;;;;;;37.15;14.85;;;1.30;99.90;;;;;;5047146;28;20029;-63
2023/01/24 06:36:56;;;;;;;43.00;14.37;;;1.30;99.90;;;;;;5028399;28;20026;-63
2023/01/24 06:39:22;;;;;;;38.35;13.60;;;1.30;99.90;;;;;;5019427;28;20694;-63
2023/01/24 06:41:48;;;;;;;40.75;13.27;;;1.30;99.90;;;;;;5046479;28;20096;-62
2023/01/24 06:44:14;;;;;;;39.25;14.85;;;1.30;99.90;;;;;;5043098;28;20038;-63
2023/01/24 06:46:40;;;;;;;41.72;14.77;;;1.30;99.90;;;;;;5043487;28;20044;-62
2023/01/24 06:49:06;;;;;;;37.30;14.07;;;1.30;99.90;;;;;;5029379;28;20046;-63
2023/01/24 06:51:31;;;;;;;41.00;14.13;;;1.30;99.90;;;;;;5047909;28;20036;-63
2023/01/24 06:53:57;;;;;;;39.78;13.93;;;1.30;99.90;;;;;;5047069;28;20048;-64
2023/01/24 06:56:23;;;;;;;37.75;14.07;;;1.30;99.90;;;;;;5046429;28;20748;-63
2023/01/24 06:58:48;;;;;;;43.28;14.80;;;1.30;99.90;;;;;;5045140;28;20037;-63
2023/01/24 07:01:14;;;;;;;42.47;15.02;;;1.30;99.90;;;;;;5038757;28;20034;-63
2023/01/24 07:03:40;;;;;;;41.90;14.35;;;1.30;99.90;;;;;;5045717;28;20470;-63
2023/01/24 07:06:05;;;;;;;36.95;14.48;;;1.30;99.90;;;;;;5033588;28;20025;-62
2023/01/24 07:08:31;;;;;;;45.70;16.75;;;1.30;99.90;;;;;;5045927;28;20079;-64
2023/01/24 07:10:58;;;;;;;43.92;15.73;;;1.30;99.90;;;;;;5050884;28;20029;-64
2023/01/24 07:13:24;;;;;;;43.47;15.73;;;1.30;99.90;;;;;;5049281;28;20033;-63
2023/01/24 07:15:49;;;;;;;41.35;14.52;;;1.30;99.90;;;;;;5035091;28;20037;-63
2023/01/24 07:18:17;;;;;;;48.45;16.80;;;1.30;99.90;;;;;;5050714;28;20032;-63
2023/01/24 07:20:43;;;;;;;43.55;14.95;;;1.30;99.90;;;;;;5049519;28;20044;-64
2023/01/24 07:23:24;;;;;;;42.15;15.82;;;1.30;99.90;;;;;;5050561;28;20045;-63
2023/01/24 07:25:51;;;;;;;46.75;16.70;;;1.30;99.90;;;;;;5048487;28;20060;-63
2023/01/24 07:28:17;;;;;;;44.92;17.25;;;1.30;99.90;;;;;;5047812;28;20033;-63
2023/01/24 07:30:45;;;;;;;44.05;14.82;;;1.30;99.90;;;;;;5043084;28;20029;-63
2023/01/24 07:33:12;;;;;;;41.53;15.10;;;1.30;99.90;;;;;;5050765;28;20462;-63
2023/01/24 07:35:38;;;;;;;42.85;14.32;;;1.30;99.90;;;;;;5048329;28;20486;-63
2023/01/24 07:38:04;;;;;;;47.97;17.95;;;1.30;99.90;;;;;;5050676;28;20087;-62
2023/01/24 07:40:29;;;;;;;43.88;16.65;;;1.30;99.90;;;;;;5050795;28;20463;-63
2023/01/24 07:42:55;;;;;;;46.10;15.30;;;1.30;99.90;;;;;;5047048;28;20098;-63
2023/01/24 07:45:20;;;;;;;51.20;16.88;;;1.40;99.90;;;;;;5040808;28;20030;-63
2023/01/24 07:47:46;;;;;;;48.33;15.98;;;1.40;99.90;;;;;;5045788;28;21305;-63
2023/01/24 07:50:12;;;;;;;47.95;16.40;;;1.40;99.90;;;;;;5049494;28;20087;-63
2023/01/24 07:52:37;;;;;;;43.90;16.27;;;1.40;99.90;;;;;;5049769;28;20036;-63
2023/01/24 07:55:03;;;;;;;43.92;14.90;;;1.40;99.90;;;;;;5049985;28;20029;-64
2023/01/24 07:57:29;;;;;;;48.55;18.63;;;1.40;99.90;;;;;;5048989;28;20401;-63
2023/01/24 07:59:55;;;;;;;44.72;16.65;;;1.40;99.90;;;;;;5041767;28;20108;-63
2023/01/24 08:02:20;;;;;;;43.72;14.93;;;1.40;99.90;;;;;;4996798;28;20041;-63
2023/01/24 08:04:46;;;;;;;41.03;14.90;;;1.40;99.90;;;;;;5043549;28;20032;-63
2023/01/24 08:07:17;;;;;;;49.13;17.42;;;1.40;99.90;;;;;;5046046;28;20780;-63
2023/01/24 08:09:47;;;;;;;45.28;16.08;;;1.40;99.90;;;;;;5045405;28;20079;-63
2023/01/24 08:12:13;;;;;;;42.90;14.90;;;1.40;99.90;;;;;;5048245;28;20116;-64
2023/01/24 08:14:39;;;;;;;49.15;16.13;;;1.40;99.90;;;;;;5047823;28;20060;-63
2023/01/24 08:17:04;;;;;;;53.03;17.38;;;1.40;99.90;;;;;;5048225;28;20039;-63
2023/01/24 08:19:31;;;;;;;45.45;16.50;;;1.40;99.90;;;;;;5048063;28;20037;-63
2023/01/24 08:21:57;;;;;;;52.33;18.23;;;1.50;99.90;;;;;;5046020;28;20086;-62
2023/01/24 08:24:22;;;;;;;44.00;16.10;;;1.50;99.90;;;;;;5047977;28;20037;-63
2023/01/24 08:26:48;;;;;;;41.80;14.15;;;1.50;99.90;;;;;;5047283;28;20029;-63
2023/01/24 08:29:15;;;;;;;38.40;14.48;;;1.50;99.90;;;;;;5049100;28;20559;-64
2023/01/24 08:31:41;;;;;;;39.13;14.05;;;1.50;99.90;;;;;;5048801;28;20033;-63
2023/01/24 08:34:06;;;;;;;33.33;13.02;;;1.60;99.90;;;;;;5049756;28;20052;-62
2023/01/24 08:36:32;;;;;;;37.42;14.57;;;1.50;99.90;;;;;;5038591;28;20060;-63
2023/01/24 08:38:58;;;;;;;37.58;13.65;;;1.50;99.90;;;;;;5046421;28;20025;-63
2023/01/24 08:41:23;;;;;;;44.13;18.27;;;1.60;99.90;;;;;;5031463;28;20033;-63
2023/01/24 08:43:51;;;;;;;44.53;16.20;;;1.60;99.90;;;;;;5046341;28;20057;-64
2023/01/24 08:46:17;;;;;;;40.67;15.27;;;1.60;99.90;;;;;;5039745;28;20038;-63
2023/01/24 08:48:43;;;;;;;38.80;15.05;;;1.60;99.90;;;;;;5048127;28;20037;-63
2023/01/24 08:51:08;;;;;;;35.28;13.25;;;1.70;99.90;;;;;;5047397;28;20024;-62
2023/01/24 08:53:34;;;;;;;41.63;16.27;;;1.70;99.90;;;;;;5046788;28;20045;-63
2023/01/24 08:56:00;;;;;;;38.67;14.25;;;1.70;99.90;;;;;;5048984;28;20028;-63
2023/01/24 08:58:25;;;;;;;41.35;16.95;;;1.70;99.90;;;;;;5048678;28;20037;-63
2023/01/24 09:00:51;;;;;;;42.88;14.80;;;1.70;99.90;;;;;;5047049;28;20424;-63
2023/01/24 09:03:18;;;;;;;35.80;13.38;;;1.70;99.90;;;;;;5046313;28;20039;-63
2023/01/24 09:05:44;;;;;;;35.72;13.90;;;1.60;99.90;;;;;;5044517;28;20107;-63
2023/01/24 09:08:10;;;;;;;36.40;13.27;;;1.70;99.90;;;;;;5045509;28;20142;-61
2023/01/24 09:10:35;;;;;;;38.38;15.48;;;1.60;99.90;;;;;;5046898;28;20485;-63
2023/01/24 09:13:02;;;;;;;49.08;16.95;;;1.70;99.90;;;;;;5048086;28;20081;-63
2023/01/24 09:15:28;;;;;;;46.47;15.63;;;1.70;99.90;;;;;;5047684;28;20454;-63
2023/01/24 09:17:54;;;;;;;52.38;19.00;;;1.70;99.90;;;;;;5048355;28;20044;-63
2023/01/24 09:20:20;;;;;;;36.28;14.00;;;1.70;99.90;;;;;;5048946;28;20028;-63
2023/01/24 09:22:46;;;;;;;32.55;12.40;;;1.80;99.90;;;;;;5048253;28;20051;-65
2023/01/24 09:25:12;;;;;;;37.50;15.25;;;1.80;99.90;;;;;;5045720;28;20021;-63
2023/01/24 09:27:40;;;;;;;34.30;13.45;;;1.80;99.90;;;;;;5048070;28;20450;-63
2023/01/24 09:30:06;;;;;;;39.88;14.40;;;1.80;99.90;;;;;;5043100;28;20250;-62
2023/01/24 09:32:32;;;;;;;49.42;18.27;;;1.80;99.90;;;;;;5040026;28;20021;-63
2023/01/24 09:34:57;;;;;;;36.75;14.07;;;1.80;99.90;;;;;;5044004;28;20041;-64
2023/01/24 09:37:23;;;;;;;40.30;14.80;;;1.70;99.90;;;;;;5031546;28;20036;-63
2023/01/24 09:39:49;;;;;;;44.83;16.23;;;1.80;99.90;;;;;;5029879;28;20029;-63
2023/01/24 09:42:27;;;;;;;34.25;13.98;;;1.80;99.90;;;;;;5048291;28;20060;-62
2023/01/24 09:45:08;;;;;;;40.28;13.77;;;1.80;99.90;;;;;;5045772;28;20106;-62
2023/01/24 09:47:37;;;;;;;35.72;13.15;;;1.80;99.90;;;;;;5028626;28;20041;-63
2023/01/24 09:50:05;;;;;;;35.10;12.38;;;1.80;99.90;;;;;;5043270;28;20033;-63
2023/01/24 09:52:41;;;;;;;32.20;12.60;;;1.90;99.90;;;;;;5030879;28;20025;-64
2023/01/24 09:55:27;;;;;;;35.30;13.05;;;1.80;99.90;;;;;;5045650;28;20029;-64
2023/01/24 09:58:06;;;;;;;32.05;12.57;;;1.80;99.90;;;;;;5047812;28;20025;-63
2023/01/24 10:00:38;;;;;;;31.17;13.20;;;1.80;99.90;;;;;;5039290;28;20083;-63
2023/01/24 10:03:14;;;;;;;36.95;14.27;;;1.80;99.90;;;;;;5046666;28;20036;-63
2023/01/24 10:05:43;;;;;;;31.80;12.77;;;1.80;99.90;;;;;;5040790;28;20033;-63
2023/01/24 10:08:29;;;;;;;34.15;12.57;;;1.90;99.90;;;;;;5027836;28;20556;-63
2023/01/24 10:11:01;;;;;;;33.10;12.15;;;1.90;99.90;;;;;;5039882;28;20369;-63
2023/01/24 10:13:36;;;;;;;28.23;11.63;;;2.00;99.90;;;;;;5048207;28;20033;-63
2023/01/24 10:16:32;;;;;;;43.78;14.48;;;2.00;99.90;;;;;;5037354;28;20025;-62
2023/01/24 10:19:09;;;;;;;34.95;12.50;;;1.90;99.90;;;;;;5036056;28;20524;-63
2023/01/24 10:21:41;;;;;;;29.70;11.95;;;2.00;99.90;;;;;;5047305;28;20167;-63
2023/01/24 10:24:12;;;;;;;29.02;11.32;;;2.00;99.90;;;;;;5047807;28;20024;-63
2023/01/24 10:26:50;;;;;;;27.20;10.77;;;2.10;99.90;;;;;;5047293;28;20035;-63
2023/01/24 10:29:23;;;;;;;31.08;12.23;;;2.00;99.90;;;;;;5048146;28;20466;-63
2023/01/24 10:32:16;;;;;;;29.30;11.90;;;2.00;99.90;;;;;;5042936;28;20508;-63
2023/01/24 10:34:47;;;;;;;26.90;10.70;;;2.00;99.90;;;;;;5047891;28;20100;-63
2023/01/24 10:37:19;;;;;;;30.70;11.50;;;2.00;99.90;;;;;;5031802;28;20053;-63
2023/01/24 10:39:45;;;;;;;28.75;11.27;;;2.00;99.90;;;;;;5037283;28;20028;-63
2023/01/24 10:42:26;;;;;;;28.48;11.50;;;2.00;99.90;;;;;;5051119;28;20067;-63
2023/01/24 10:44:54;;;;;;;26.15;10.65;;;2.20;99.90;;;;;;5050979;28;20060;-63
2023/01/24 10:47:41;;;;;;;31.48;12.07;;;2.20;99.90;;;;;;5048591;28;20025;-63
2023/01/24 10:50:15;;;;;;;26.65;10.57;;;2.10;99.90;;;;;;5030997;28;20021;-63
2023/01/24 10:52:41;;;;;;;27.60;10.68;;;2.20;99.90;;;;;;5031919;28;20044;-64
2023/01/24 10:55:37;;;;;;;30.88;11.23;;;2.30;99.90;;;;;;5025040;28;20033;-63
2023/01/24 10:58:22;;;;;;;27.15;10.93;;;2.30;99.90;;;;;;5042218;28;20065;-64
2023/01/24 11:00:57;;;;;;;27.42;10.23;;;2.40;99.90;;;;;;5046631;28;20036;-63
2023/01/24 11:03:26;;;;;;;28.65;10.05;;;2.40;99.90;;;;;;5046946;28;20041;-63
2023/01/24 11:05:57;;;;;;;25.95;10.80;;;2.30;99.90;;;;;;5040559;28;20072;-63
2023/01/24 11:08:34;;;;;;;32.72;11.30;;;2.30;99.90;;;;;;5044151;28;20146;-63
2023/01/24 11:11:02;;;;;;;24.70;9.95;;;2.40;99.90;;;;;;5045610;28;20033;-63
2023/01/24 11:13:40;;;;;;;26.98;10.75;;;2.30;99.90;;;;;;5031928;28;20170;-64
2023/01/24 11:16:15;;;;;;;28.52;10.52;;;2.30;99.90;;;;;;5043863;28;20383;-61
2023/01/24 11:18:57;;;;;;;27.02;10.68;;;2.30;99.90;;;;;;5040137;28;20048;-64
2023/01/24 11:21:23;;;;;;;24.55;10.52;;;2.30;99.90;;;;;;5026970;28;20037;-64
2023/01/24 11:24:13;;;;;;;29.25;10.60;;;2.40;99.90;;;;;;5046144;28;20087;-64
2023/01/24 11:27:04;;;;;;;25.98;10.45;;;2.50;99.90;;;;;;5042592;28;20037;-64
2023/01/24 11:29:34;;;;;;;24.92;10.10;;;2.50;99.90;;;;;;5045758;28;20033;-65
2023/01/24 11:32:28;;;;;;;27.60;11.40;;;2.60;99.90;;;;;;5044643;28;20140;-63
2023/01/24 11:35:11;;;;;;;26.70;9.60;;;2.60;99.90;;;;;;5047212;28;20037;-64
2023/01/24 11:38:21;;;;;;;25.63;10.70;;;2.60;99.90;;;;;;5032339;28;20098;-63
2023/01/24 11:40:57;;;;;;;24.65;9.48;;;2.60;99.90;;;;;;5038156;28;20075;-62
2023/01/24 11:43:31;;;;;;;29.95;11.00;;;2.70;99.90;;;;;;5050156;28;20124;-64
2023/01/24 11:46:15;;;;;;;23.05;10.20;;;2.70;99.90;;;;;;5045628;28;20838;-62
2023/01/24 11:48:44;;;;;;;28.63;10.20;;;2.70;99.90;;;;;;5040677;28;20527;-63
2023/01/24 11:51:26;;;;;;;26.55;10.45;;;2.80;99.90;;;;;;5044258;28;20150;-63
2023/01/24 11:54:06;;;;;;;24.65;9.57;;;2.80;99.90;;;;;;5047248;28;20406;-63
2023/01/24 11:56:55;;;;;;;22.58;10.02;;;2.80;99.90;;;;;;5047781;28;20040;-63
2023/01/24 11:59:45;;;;;;;22.15;9.82;;;2.90;99.90;;;;;;5048678;28;20527;-64
2023/01/24 12:02:38;;;;;;;22.95;10.15;;;2.80;99.90;;;;;;5041239;28;20036;-63
2023/01/24 12:05:41;;;;;;;24.85;9.70;;;2.80;99.90;;;;;;5048773;28;20033;-64
2023/01/24 12:08:09;;;;;;;22.60;9.82;;;2.80;99.90;;;;;;5047331;28;20036;-63
2023/01/24 12:10:56;;;;;;;23.13;9.38;;;2.80;99.90;;;;;;5050197;28;20067;-63
2023/01/24 12:13:37;;;;;;;22.17;9.13;;;2.80;99.90;;;;;;5050417;28;20776;-63
2023/01/24 12:16:23;;;;;;;24.58;9.10;;;2.90;99.90;;;;;;5042053;28;20042;-64
2023/01/24 12:19:23;;;;;;;23.33;9.27;;;3.00;99.90;;;;;;5045567;28;20041;-64
2023/01/24 12:21:54;;;;;;;20.60;9.13;;;3.00;99.90;;;;;;5047148;28;20097;-64
2023/01/24 12:24:27;;;;;;;23.30;9.88;;;3.10;99.90;;;;;;5028686;28;20071;-63
2023/01/24 12:27:00;;;;;;;24.80;10.27;;;3.10;99.90;;;;;;5049151;28;20424;-64
2023/01/24 12:29:46;;;;;;;27.98;10.80;;;3.00;99.90;;;;;;5049973;28;20024;-63
2023/01/24 12:32:25;;;;;;;26.38;11.45;;;2.90;99.90;;;;;;5037567;28;20900;-63
2023/01/24 12:35:08;;;;;;;39.25;17.23;;;3.00;99.90;;;;;;5049095;28;20037;-63
2023/01/24 12:37:56;;;;;;;33.40;14.23;;;2.90;99.90;;;;;;5045055;28;20040;-63
2023/01/24 12:40:39;;;;;;;29.90;12.32;;;2.90;99.90;;;;;;5049336;28;20052;-63
2023/01/24 12:43:17;;;;;;;41.95;17.48;;;3.00;99.90;;;;;;5046008;28;20131;-63
2023/01/24 12:45:46;;;;;;;26.92;12.60;;;3.00;99.90;;;;;;5038322;28;20041;-63
2023/01/24 12:48:36;;;;;;;32.20;13.60;;;3.00;99.90;;;;;;5042472;28;20500;-63
2023/01/24 12:51:26;;;;;;;36.25;17.15;;;2.90;99.90;;;;;;5047708;28;20033;-64
2023/01/24 12:53:59;;;;;;;38.75;17.02;;;2.90;99.90;;;;;;5048374;28;20045;-63
2023/01/24 12:56:46;;;;;;;37.08;14.70;;;2.90;99.90;;;;;;5049458;28;20032;-64
2023/01/24 12:59:13;;;;;;;34.95;13.75;;;2.90;99.90;;;;;;5047032;28;20033;-63
2023/01/24 13:01:57;;;;;;;30.85;12.70;;;2.90;99.90;;;;;;5046608;28;20080;-63
2023/01/24 13:04:33;;;;;;;30.48;12.20;;;2.80;99.90;;;;;;5046704;28;20036;-64
2023/01/24 13:07:17;;;;;;;26.38;10.50;;;2.90;99.90;;;;;;5035542;28;20032;-62
2023/01/24 13:10:09;;;;;;;45.13;14.82;;;2.90;99.90;;;;;;5045406;28;20751;-63
2023/01/24 13:12:34;;;;;;;38.47;13.57;;;2.80;99.90;;;;;;5045465;28;20044;-64
2023/01/24 13:15:05;;;;;;;45.80;14.00;;;2.80;99.90;;;;;;5047888;28;20044;-63
2023/01/24 13:17:55;;;;;;;108.35;28.25;;;2.90;99.90;;;;;;5048048;28;20064;-64
2023/01/24 13:20:48;;;;;;;46.30;15.52;;;2.90;99.90;;;;;;5045710;28;20040;-63
2023/01/24 13:23:46;;;;;;;31.58;12.07;;;2.80;99.90;;;;;;5032315;28;20051;-63
2023/01/24 13:26:49;;;;;;;53.22;16.17;;;2.70;99.90;;;;;;5043989;28;20056;-62
2023/01/24 13:29:21;;;;;;;57.92;18.42;;;2.80;99.90;;;;;;5046533;28;20020;-64
2023/01/24 13:31:59;;;;;;;100.03;27.80;;;2.80;99.90;;;;;;5039749;28;20091;-63
2023/01/24 13:34:32;;;;;;;94.30;26.25;;;2.80;99.90;;;;;;5044755;28;20028;-63
2023/01/24 13:37:00;;;;;;;66.32;19.77;;;2.80;99.90;;;;;;5039712;28;20056;-62